sensor_id;sensor_type;location;lat;lon;timestamp;P1;durP1;ratioP1;P2;durP2;ratioP2
55784;SDS011;41709;52.536;5.688;2022-12-18T00:01:43;55.55;;;27.30;;
55784;SDS011;41709;52.536;5.688;2022-12-18T00:04:15;57.53;;;27.15;;
55784;SDS011;41709;52.536;5.688;2022-12-18T00:06:51;59.17;;;27.58;;
55784;SDS011;41709;52.536;5.688;2022-12-18T00:09:17;56.10;;;25.35;;
55784;SDS011;41709;52.536;5.688;2022-12-18T00:11:43;55.15;;;25.45;;
55784;SDS011;41709;52.536;5.688;2022-12-18T00:14:09;53.00;;;25.40;;
55784;SDS011;41709;52.536;5.688;2022-12-18T00:16:37;57.17;;;25.58;;
55784;SDS011;41709;52.536;5.688;2022-12-18T00:19:03;53.65;;;25.38;;
55784;SDS011;41709;52.536;5.688;2022-12-18T00:21:30;57.72;;;24.58;;
55784;SDS011;41709;52.536;5.688;2022-12-18T00:23:57;57.10;;;25.75;;
55784;SDS011;41709;52.536;5.688;2022-12-18T00:26:25;54.47;;;25.58;;
55784;SDS011;41709;52.536;5.688;2022-12-18T00:28:52;56.72;;;25.55;;
55784;SDS011;41709;52.536;5.688;2022-12-18T00:31:20;59.10;;;25.65;;
55784;SDS011;41709;52.536;5.688;2022-12-18T00:33:49;58.17;;;26.88;;
55784;SDS011;41709;52.536;5.688;2022-12-18T00:36:19;56.70;;;25.02;;
55784;SDS011;41709;52.536;5.688;2022-12-18T00:38:46;62.30;;;25.65;;
55784;SDS011;41709;52.536;5.688;2022-12-18T00:41:13;55.55;;;24.92;;
55784;SDS011;41709;52.536;5.688;2022-12-18T00:44:00;55.53;;;25.92;;
55784;SDS011;41709;52.536;5.688;2022-12-18T00:46:27;56.00;;;25.75;;
55784;SDS011;41709;52.536;5.688;2022-12-18T00:48:55;54.65;;;25.02;;
55784;SDS011;41709;52.536;5.688;2022-12-18T00:51:21;61.05;;;26.40;;
55784;SDS011;41709;52.536;5.688;2022-12-18T00:53:46;56.88;;;26.05;;
55784;SDS011;41709;52.536;5.688;2022-12-18T00:56:13;54.13;;;24.20;;
55784;SDS011;41709;52.536;5.688;2022-12-18T00:58:38;59.88;;;25.33;;
55784;SDS011;41709;52.536;5.688;2022-12-18T01:01:04;57.13;;;26.60;;
55784;SDS011;41709;52.536;5.688;2022-12-18T01:03:31;56.65;;;26.08;;
55784;SDS011;41709;52.536;5.688;2022-12-18T01:05:56;57.08;;;24.40;;
55784;SDS011;41709;52.536;5.688;2022-12-18T01:08:22;57.97;;;26.15;;
55784;SDS011;41709;52.536;5.688;2022-12-18T01:10:48;56.88;;;23.98;;
55784;SDS011;41709;52.536;5.688;2022-12-18T01:13:13;56.58;;;25.95;;
55784;SDS011;41709;52.536;5.688;2022-12-18T01:15:39;58.08;;;24.90;;
55784;SDS011;41709;52.536;5.688;2022-12-18T01:18:12;58.97;;;25.08;;
55784;SDS011;41709;52.536;5.688;2022-12-18T01:20:38;54.90;;;25.02;;
55784;SDS011;41709;52.536;5.688;2022-12-18T01:23:03;58.20;;;25.95;;
55784;SDS011;41709;52.536;5.688;2022-12-18T01:25:29;54.47;;;26.02;;
55784;SDS011;41709;52.536;5.688;2022-12-18T01:27:54;63.45;;;28.42;;
55784;SDS011;41709;52.536;5.688;2022-12-18T01:30:20;56.88;;;25.25;;
55784;SDS011;41709;52.536;5.688;2022-12-18T01:32:46;51.47;;;24.55;;
55784;SDS011;41709;52.536;5.688;2022-12-18T01:35:15;57.47;;;28.10;;
55784;SDS011;41709;52.536;5.688;2022-12-18T01:37:40;60.38;;;26.40;;
55784;SDS011;41709;52.536;5.688;2022-12-18T01:40:06;59.28;;;26.45;;
55784;SDS011;41709;52.536;5.688;2022-12-18T01:42:32;58.90;;;26.10;;
55784;SDS011;41709;52.536;5.688;2022-12-18T01:47:52;66.55;;;29.40;;
55784;SDS011;41709;52.536;5.688;2022-12-18T01:50:36;54.50;;;26.42;;
55784;SDS011;41709;52.536;5.688;2022-12-18T01:53:06;61.78;;;25.70;;
55784;SDS011;41709;52.536;5.688;2022-12-18T01:55:40;58.47;;;26.33;;
55784;SDS011;41709;52.536;5.688;2022-12-18T01:58:22;64.03;;;27.67;;
55784;SDS011;41709;52.536;5.688;2022-12-18T02:01:00;63.92;;;27.58;;
55784;SDS011;41709;52.536;5.688;2022-12-18T02:03:26;60.72;;;27.70;;
55784;SDS011;41709;52.536;5.688;2022-12-18T02:06:01;58.35;;;26.35;;
55784;SDS011;41709;52.536;5.688;2022-12-18T02:11:32;64.50;;;27.75;;
55784;SDS011;41709;52.536;5.688;2022-12-18T02:14:25;65.40;;;27.73;;
55784;SDS011;41709;52.536;5.688;2022-12-18T02:28:09;67.28;;;28.40;;
55784;SDS011;41709;52.536;5.688;2022-12-18T02:30:38;65.30;;;28.25;;
55784;SDS011;41709;52.536;5.688;2022-12-18T02:33:06;67.60;;;29.00;;
55784;SDS011;41709;52.536;5.688;2022-12-18T02:35:34;68.22;;;28.23;;
55784;SDS011;41709;52.536;5.688;2022-12-18T02:38:03;68.00;;;27.57;;
55784;SDS011;41709;52.536;5.688;2022-12-18T02:40:29;67.05;;;29.40;;
55784;SDS011;41709;52.536;5.688;2022-12-18T02:43:01;62.30;;;26.70;;
55784;SDS011;41709;52.536;5.688;2022-12-18T02:45:50;66.93;;;28.20;;
55784;SDS011;41709;52.536;5.688;2022-12-18T02:48:19;60.90;;;27.20;;
55784;SDS011;41709;52.536;5.688;2022-12-18T02:51:00;62.92;;;26.63;;
55784;SDS011;41709;52.536;5.688;2022-12-18T02:53:56;64.25;;;28.75;;
55784;SDS011;41709;52.536;5.688;2022-12-18T03:02:04;58.67;;;25.40;;
55784;SDS011;41709;52.536;5.688;2022-12-18T03:04:53;62.28;;;27.17;;
55784;SDS011;41709;52.536;5.688;2022-12-18T03:07:35;60.92;;;26.42;;
55784;SDS011;41709;52.536;5.688;2022-12-18T03:12:34;57.72;;;24.70;;
55784;SDS011;41709;52.536;5.688;2022-12-18T03:17:30;56.47;;;24.55;;
55784;SDS011;41709;52.536;5.688;2022-12-18T03:19:59;55.88;;;25.73;;
55784;SDS011;41709;52.536;5.688;2022-12-18T03:22:31;60.25;;;26.45;;
55784;SDS011;41709;52.536;5.688;2022-12-18T03:25:00;55.83;;;24.55;;
55784;SDS011;41709;52.536;5.688;2022-12-18T03:27:28;59.45;;;27.20;;
55784;SDS011;41709;52.536;5.688;2022-12-18T03:30:00;56.22;;;25.05;;
55784;SDS011;41709;52.536;5.688;2022-12-18T03:32:37;60.92;;;25.33;;
55784;SDS011;41709;52.536;5.688;2022-12-18T03:35:04;56.17;;;25.88;;
55784;SDS011;41709;52.536;5.688;2022-12-18T03:37:32;55.78;;;24.60;;
55784;SDS011;41709;52.536;5.688;2022-12-18T03:39:58;55.28;;;25.27;;
55784;SDS011;41709;52.536;5.688;2022-12-18T03:48:03;54.47;;;22.92;;
55784;SDS011;41709;52.536;5.688;2022-12-18T03:53:21;52.22;;;23.90;;
55784;SDS011;41709;52.536;5.688;2022-12-18T03:56:08;58.75;;;24.45;;
55784;SDS011;41709;52.536;5.688;2022-12-18T03:58:35;52.80;;;24.73;;
55784;SDS011;41709;52.536;5.688;2022-12-18T04:01:05;53.40;;;23.25;;
55784;SDS011;41709;52.536;5.688;2022-12-18T04:03:35;57.00;;;26.02;;
55784;SDS011;41709;52.536;5.688;2022-12-18T04:06:02;54.13;;;23.98;;
55784;SDS011;41709;52.536;5.688;2022-12-18T04:08:32;53.70;;;25.33;;
55784;SDS011;41709;52.536;5.688;2022-12-18T04:11:00;54.50;;;25.30;;
55784;SDS011;41709;52.536;5.688;2022-12-18T04:13:31;57.35;;;25.48;;
55784;SDS011;41709;52.536;5.688;2022-12-18T04:16:00;56.40;;;23.70;;
55784;SDS011;41709;52.536;5.688;2022-12-18T04:18:26;62.58;;;28.13;;
55784;SDS011;41709;52.536;5.688;2022-12-18T04:20:52;63.83;;;28.00;;
55784;SDS011;41709;52.536;5.688;2022-12-18T04:23:18;60.92;;;27.00;;
55784;SDS011;41709;52.536;5.688;2022-12-18T04:25:44;55.75;;;25.58;;
55784;SDS011;41709;52.536;5.688;2022-12-18T04:28:10;61.10;;;25.33;;
55784;SDS011;41709;52.536;5.688;2022-12-18T04:30:36;59.97;;;25.90;;
55784;SDS011;41709;52.536;5.688;2022-12-18T04:33:01;52.55;;;24.17;;
55784;SDS011;41709;52.536;5.688;2022-12-18T04:35:27;60.10;;;25.33;;
55784;SDS011;41709;52.536;5.688;2022-12-18T04:37:53;53.88;;;23.75;;
55784;SDS011;41709;52.536;5.688;2022-12-18T04:40:18;54.88;;;24.17;;
55784;SDS011;41709;52.536;5.688;2022-12-18T04:42:44;59.03;;;24.13;;
55784;SDS011;41709;52.536;5.688;2022-12-18T04:45:10;52.70;;;22.67;;
55784;SDS011;41709;52.536;5.688;2022-12-18T04:47:35;58.08;;;25.02;;
55784;SDS011;41709;52.536;5.688;2022-12-18T04:50:01;54.22;;;24.65;;
55784;SDS011;41709;52.536;5.688;2022-12-18T04:52:27;46.45;;;21.48;;
55784;SDS011;41709;52.536;5.688;2022-12-18T04:54:52;53.10;;;23.08;;
55784;SDS011;41709;52.536;5.688;2022-12-18T04:57:21;46.97;;;22.38;;
55784;SDS011;41709;52.536;5.688;2022-12-18T04:59:46;48.95;;;24.17;;
55784;SDS011;41709;52.536;5.688;2022-12-18T05:02:12;50.22;;;22.13;;
55784;SDS011;41709;52.536;5.688;2022-12-18T05:04:38;45.42;;;22.30;;
55784;SDS011;41709;52.536;5.688;2022-12-18T05:07:04;44.50;;;21.10;;
55784;SDS011;41709;52.536;5.688;2022-12-18T05:09:29;46.65;;;21.75;;
55784;SDS011;41709;52.536;5.688;2022-12-18T05:11:55;51.20;;;22.13;;
55784;SDS011;41709;52.536;5.688;2022-12-18T05:14:21;49.50;;;21.58;;
55784;SDS011;41709;52.536;5.688;2022-12-18T05:16:47;49.08;;;22.25;;
55784;SDS011;41709;52.536;5.688;2022-12-18T05:19:13;48.63;;;21.30;;
55784;SDS011;41709;52.536;5.688;2022-12-18T05:21:39;46.83;;;21.95;;
55784;SDS011;41709;52.536;5.688;2022-12-18T05:24:05;51.13;;;22.10;;
55784;SDS011;41709;52.536;5.688;2022-12-18T05:26:31;51.30;;;21.55;;
55784;SDS011;41709;52.536;5.688;2022-12-18T05:28:56;48.55;;;20.52;;
55784;SDS011;41709;52.536;5.688;2022-12-18T05:31:22;44.38;;;20.25;;
55784;SDS011;41709;52.536;5.688;2022-12-18T05:33:50;45.50;;;21.70;;
55784;SDS011;41709;52.536;5.688;2022-12-18T05:36:16;45.53;;;21.60;;
55784;SDS011;41709;52.536;5.688;2022-12-18T05:38:42;43.28;;;19.58;;
55784;SDS011;41709;52.536;5.688;2022-12-18T05:41:08;48.05;;;20.13;;
55784;SDS011;41709;52.536;5.688;2022-12-18T05:43:34;48.58;;;21.88;;
55784;SDS011;41709;52.536;5.688;2022-12-18T05:46:09;42.95;;;20.25;;
55784;SDS011;41709;52.536;5.688;2022-12-18T05:48:38;43.03;;;20.13;;
55784;SDS011;41709;52.536;5.688;2022-12-18T05:51:08;42.80;;;19.75;;
55784;SDS011;41709;52.536;5.688;2022-12-18T05:53:39;43.72;;;19.92;;
55784;SDS011;41709;52.536;5.688;2022-12-18T05:56:07;47.30;;;20.55;;
55784;SDS011;41709;52.536;5.688;2022-12-18T05:58:38;45.28;;;19.92;;
55784;SDS011;41709;52.536;5.688;2022-12-18T06:01:08;41.63;;;19.50;;
55784;SDS011;41709;52.536;5.688;2022-12-18T06:03:42;39.13;;;19.75;;
55784;SDS011;41709;52.536;5.688;2022-12-18T06:06:15;42.58;;;20.48;;
55784;SDS011;41709;52.536;5.688;2022-12-18T06:08:46;39.17;;;19.88;;
55784;SDS011;41709;52.536;5.688;2022-12-18T06:11:12;43.42;;;19.35;;
55784;SDS011;41709;52.536;5.688;2022-12-18T06:13:38;40.42;;;18.77;;
55784;SDS011;41709;52.536;5.688;2022-12-18T06:16:04;36.50;;;18.15;;
55784;SDS011;41709;52.536;5.688;2022-12-18T06:18:30;40.85;;;20.05;;
55784;SDS011;41709;52.536;5.688;2022-12-18T06:20:56;42.95;;;17.80;;
55784;SDS011;41709;52.536;5.688;2022-12-18T06:23:22;40.85;;;17.95;;
55784;SDS011;41709;52.536;5.688;2022-12-18T06:25:48;35.05;;;17.70;;
55784;SDS011;41709;52.536;5.688;2022-12-18T06:28:14;44.53;;;19.42;;
55784;SDS011;41709;52.536;5.688;2022-12-18T06:30:42;36.65;;;18.02;;
55784;SDS011;41709;52.536;5.688;2022-12-18T06:33:08;39.78;;;17.95;;
55784;SDS011;41709;52.536;5.688;2022-12-18T06:35:37;38.63;;;18.50;;
55784;SDS011;41709;52.536;5.688;2022-12-18T06:38:05;37.45;;;18.17;;
55784;SDS011;41709;52.536;5.688;2022-12-18T06:40:31;37.10;;;16.60;;
55784;SDS011;41709;52.536;5.688;2022-12-18T06:42:59;35.78;;;17.35;;
55784;SDS011;41709;52.536;5.688;2022-12-18T06:45:25;34.88;;;18.80;;
55784;SDS011;41709;52.536;5.688;2022-12-18T06:47:50;36.63;;;17.75;;
55784;SDS011;41709;52.536;5.688;2022-12-18T06:50:16;35.70;;;17.40;;
55784;SDS011;41709;52.536;5.688;2022-12-18T06:52:45;37.13;;;17.17;;
55784;SDS011;41709;52.536;5.688;2022-12-18T06:55:11;38.35;;;18.30;;
55784;SDS011;41709;52.536;5.688;2022-12-18T06:57:36;31.98;;;16.17;;
55784;SDS011;41709;52.536;5.688;2022-12-18T07:00:03;35.30;;;17.33;;
55784;SDS011;41709;52.536;5.688;2022-12-18T07:02:31;34.97;;;17.55;;
55784;SDS011;41709;52.536;5.688;2022-12-18T07:04:57;39.47;;;18.02;;
55784;SDS011;41709;52.536;5.688;2022-12-18T07:07:23;33.88;;;16.52;;
55784;SDS011;41709;52.536;5.688;2022-12-18T07:09:49;41.42;;;18.58;;
55784;SDS011;41709;52.536;5.688;2022-12-18T07:12:15;35.65;;;17.85;;
55784;SDS011;41709;52.536;5.688;2022-12-18T07:14:41;36.80;;;16.70;;
55784;SDS011;41709;52.536;5.688;2022-12-18T07:17:07;37.20;;;17.23;;
55784;SDS011;41709;52.536;5.688;2022-12-18T07:19:35;33.25;;;16.10;;
55784;SDS011;41709;52.536;5.688;2022-12-18T07:22:01;30.88;;;16.38;;
55784;SDS011;41709;52.536;5.688;2022-12-18T07:24:27;32.60;;;16.17;;
55784;SDS011;41709;52.536;5.688;2022-12-18T07:26:53;32.67;;;17.52;;
55784;SDS011;41709;52.536;5.688;2022-12-18T07:29:19;30.88;;;16.17;;
55784;SDS011;41709;52.536;5.688;2022-12-18T07:31:44;37.63;;;17.30;;
55784;SDS011;41709;52.536;5.688;2022-12-18T07:34:14;39.03;;;18.70;;
55784;SDS011;41709;52.536;5.688;2022-12-18T07:36:40;37.85;;;18.15;;
55784;SDS011;41709;52.536;5.688;2022-12-18T07:39:06;38.20;;;17.02;;
55784;SDS011;41709;52.536;5.688;2022-12-18T07:41:33;41.33;;;18.25;;
55784;SDS011;41709;52.536;5.688;2022-12-18T07:43:59;36.45;;;17.38;;
55784;SDS011;41709;52.536;5.688;2022-12-18T07:46:25;36.65;;;17.45;;
55784;SDS011;41709;52.536;5.688;2022-12-18T07:48:51;29.92;;;15.55;;
55784;SDS011;41709;52.536;5.688;2022-12-18T07:51:17;29.38;;;15.27;;
55784;SDS011;41709;52.536;5.688;2022-12-18T07:53:43;27.65;;;14.95;;
55784;SDS011;41709;52.536;5.688;2022-12-18T07:56:10;29.10;;;15.25;;
55784;SDS011;41709;52.536;5.688;2022-12-18T07:58:37;27.95;;;15.10;;
55784;SDS011;41709;52.536;5.688;2022-12-18T08:01:03;29.48;;;14.50;;
55784;SDS011;41709;52.536;5.688;2022-12-18T08:03:33;25.50;;;14.65;;
55784;SDS011;41709;52.536;5.688;2022-12-18T08:06:00;26.80;;;15.55;;
55784;SDS011;41709;52.536;5.688;2022-12-18T08:08:26;29.10;;;15.73;;
55784;SDS011;41709;52.536;5.688;2022-12-18T08:10:53;27.02;;;14.68;;
55784;SDS011;41709;52.536;5.688;2022-12-18T08:13:18;32.10;;;16.85;;
55784;SDS011;41709;52.536;5.688;2022-12-18T08:15:44;29.98;;;15.73;;
55784;SDS011;41709;52.536;5.688;2022-12-18T08:18:09;32.47;;;17.10;;
55784;SDS011;41709;52.536;5.688;2022-12-18T08:20:35;30.65;;;15.93;;
55784;SDS011;41709;52.536;5.688;2022-12-18T08:23:01;27.75;;;15.00;;
55784;SDS011;41709;52.536;5.688;2022-12-18T08:25:26;27.73;;;15.32;;
55784;SDS011;41709;52.536;5.688;2022-12-18T08:27:52;31.15;;;16.10;;
55784;SDS011;41709;52.536;5.688;2022-12-18T08:30:17;23.77;;;14.63;;
55784;SDS011;41709;52.536;5.688;2022-12-18T08:32:43;30.77;;;15.07;;
55784;SDS011;41709;52.536;5.688;2022-12-18T08:35:08;27.73;;;15.10;;
55784;SDS011;41709;52.536;5.688;2022-12-18T08:37:36;26.00;;;14.40;;
55784;SDS011;41709;52.536;5.688;2022-12-18T08:40:02;24.35;;;13.80;;
55784;SDS011;41709;52.536;5.688;2022-12-18T08:42:28;38.03;;;19.65;;
55784;SDS011;41709;52.536;5.688;2022-12-18T08:45:12;27.85;;;14.05;;
55784;SDS011;41709;52.536;5.688;2022-12-18T08:47:37;26.80;;;14.55;;
55784;SDS011;41709;52.536;5.688;2022-12-18T08:50:03;19.48;;;11.75;;
55784;SDS011;41709;52.536;5.688;2022-12-18T08:52:30;22.63;;;13.32;;
55784;SDS011;41709;52.536;5.688;2022-12-18T08:54:56;22.00;;;12.57;;
55784;SDS011;41709;52.536;5.688;2022-12-18T08:57:22;25.80;;;13.13;;
55784;SDS011;41709;52.536;5.688;2022-12-18T08:59:47;24.67;;;12.70;;
55784;SDS011;41709;52.536;5.688;2022-12-18T09:02:13;22.80;;;11.65;;
55784;SDS011;41709;52.536;5.688;2022-12-18T09:04:39;21.92;;;11.55;;
55784;SDS011;41709;52.536;5.688;2022-12-18T09:07:04;21.77;;;12.18;;
55784;SDS011;41709;52.536;5.688;2022-12-18T09:09:30;25.65;;;12.75;;
55784;SDS011;41709;52.536;5.688;2022-12-18T09:11:55;19.58;;;11.93;;
55784;SDS011;41709;52.536;5.688;2022-12-18T09:14:21;20.60;;;10.80;;
55784;SDS011;41709;52.536;5.688;2022-12-18T09:16:46;21.58;;;11.52;;
55784;SDS011;41709;52.536;5.688;2022-12-18T09:19:12;25.10;;;12.05;;
55784;SDS011;41709;52.536;5.688;2022-12-18T09:21:38;20.85;;;11.18;;
55784;SDS011;41709;52.536;5.688;2022-12-18T09:24:04;18.67;;;11.02;;
55784;SDS011;41709;52.536;5.688;2022-12-18T09:26:30;20.92;;;11.55;;
55784;SDS011;41709;52.536;5.688;2022-12-18T09:28:56;21.08;;;11.90;;
55784;SDS011;41709;52.536;5.688;2022-12-18T09:31:22;20.92;;;11.48;;
55784;SDS011;41709;52.536;5.688;2022-12-18T09:33:48;22.85;;;10.80;;
55784;SDS011;41709;52.536;5.688;2022-12-18T09:36:15;22.55;;;10.93;;
55784;SDS011;41709;52.536;5.688;2022-12-18T09:38:41;19.67;;;10.93;;
55784;SDS011;41709;52.536;5.688;2022-12-18T09:44:01;19.67;;;10.98;;
55784;SDS011;41709;52.536;5.688;2022-12-18T09:46:43;22.25;;;12.02;;
55784;SDS011;41709;52.536;5.688;2022-12-18T09:49:30;22.17;;;10.70;;
55784;SDS011;41709;52.536;5.688;2022-12-18T09:52:05;20.38;;;11.50;;
55784;SDS011;41709;52.536;5.688;2022-12-18T09:54:38;22.30;;;11.27;;
55784;SDS011;41709;52.536;5.688;2022-12-18T09:57:05;20.65;;;11.05;;
55784;SDS011;41709;52.536;5.688;2022-12-18T09:59:33;23.23;;;10.55;;
55784;SDS011;41709;52.536;5.688;2022-12-18T10:02:10;22.17;;;10.43;;
55784;SDS011;41709;52.536;5.688;2022-12-18T10:04:38;18.35;;;10.45;;
55784;SDS011;41709;52.536;5.688;2022-12-18T10:07:07;17.45;;;10.35;;
55784;SDS011;41709;52.536;5.688;2022-12-18T10:09:56;17.42;;;9.63;;
55784;SDS011;41709;52.536;5.688;2022-12-18T10:15:56;17.90;;;9.15;;
55784;SDS011;41709;52.536;5.688;2022-12-18T10:18:39;21.63;;;10.70;;
55784;SDS011;41709;52.536;5.688;2022-12-18T10:21:15;20.02;;;10.43;;
55784;SDS011;41709;52.536;5.688;2022-12-18T10:23:52;17.75;;;9.18;;
55784;SDS011;41709;52.536;5.688;2022-12-18T10:26:40;19.98;;;9.80;;
55784;SDS011;41709;52.536;5.688;2022-12-18T10:29:10;18.27;;;9.73;;
55784;SDS011;41709;52.536;5.688;2022-12-18T10:31:38;14.88;;;9.40;;
55784;SDS011;41709;52.536;5.688;2022-12-18T10:34:04;17.92;;;9.43;;
55784;SDS011;41709;52.536;5.688;2022-12-18T10:36:29;27.42;;;11.73;;
55784;SDS011;41709;52.536;5.688;2022-12-18T10:39:04;16.55;;;9.50;;
55784;SDS011;41709;52.536;5.688;2022-12-18T10:41:47;18.10;;;9.00;;
55784;SDS011;41709;52.536;5.688;2022-12-18T10:44:22;15.65;;;10.32;;
55784;SDS011;41709;52.536;5.688;2022-12-18T10:46:50;18.50;;;11.43;;
55784;SDS011;41709;52.536;5.688;2022-12-18T10:51:49;19.33;;;10.48;;
55784;SDS011;41709;52.536;5.688;2022-12-18T10:54:20;17.38;;;9.52;;
55784;SDS011;41709;52.536;5.688;2022-12-18T10:56:47;17.50;;;10.05;;
55784;SDS011;41709;52.536;5.688;2022-12-18T10:59:14;18.40;;;9.18;;
55784;SDS011;41709;52.536;5.688;2022-12-18T11:01:48;19.48;;;10.13;;
55784;SDS011;41709;52.536;5.688;2022-12-18T11:04:16;20.20;;;10.52;;
55784;SDS011;41709;52.536;5.688;2022-12-18T11:06:54;18.27;;;10.77;;
55784;SDS011;41709;52.536;5.688;2022-12-18T11:09:34;16.42;;;9.65;;
55784;SDS011;41709;52.536;5.688;2022-12-18T11:12:02;18.23;;;9.27;;
55784;SDS011;41709;52.536;5.688;2022-12-18T11:14:52;15.38;;;9.85;;
55784;SDS011;41709;52.536;5.688;2022-12-18T11:17:31;20.40;;;10.32;;
55784;SDS011;41709;52.536;5.688;2022-12-18T11:20:00;19.88;;;10.27;;
55784;SDS011;41709;52.536;5.688;2022-12-18T11:22:32;17.20;;;9.32;;
55784;SDS011;41709;52.536;5.688;2022-12-18T11:27:40;15.43;;;9.40;;
55784;SDS011;41709;52.536;5.688;2022-12-18T11:32:59;15.32;;;9.40;;
55784;SDS011;41709;52.536;5.688;2022-12-18T11:38:10;17.98;;;9.93;;
55784;SDS011;41709;52.536;5.688;2022-12-18T11:40:45;17.17;;;9.55;;
55784;SDS011;41709;52.536;5.688;2022-12-18T11:43:27;15.20;;;8.77;;
55784;SDS011;41709;52.536;5.688;2022-12-18T11:46:57;18.43;;;8.90;;
55784;SDS011;41709;52.536;5.688;2022-12-18T11:48:58;15.97;;;9.60;;
55784;SDS011;41709;52.536;5.688;2022-12-18T11:51:31;15.18;;;8.85;;
55784;SDS011;41709;52.536;5.688;2022-12-18T11:54:12;17.50;;;9.70;;
55784;SDS011;41709;52.536;5.688;2022-12-18T11:59:39;14.73;;;8.45;;
55784;SDS011;41709;52.536;5.688;2022-12-18T12:05:38;15.48;;;9.25;;
55784;SDS011;41709;52.536;5.688;2022-12-18T12:13:40;16.77;;;9.20;;
55784;SDS011;41709;52.536;5.688;2022-12-18T12:16:34;18.15;;;9.05;;
55784;SDS011;41709;52.536;5.688;2022-12-18T12:25:21;15.18;;;8.73;;
55784;SDS011;41709;52.536;5.688;2022-12-18T12:28:01;17.85;;;8.88;;
55784;SDS011;41709;52.536;5.688;2022-12-18T12:30:35;14.88;;;8.65;;
55784;SDS011;41709;52.536;5.688;2022-12-18T12:35:52;12.75;;;8.30;;
55784;SDS011;41709;52.536;5.688;2022-12-18T12:40:52;14.48;;;8.60;;
55784;SDS011;41709;52.536;5.688;2022-12-18T12:43:34;14.55;;;7.95;;
55784;SDS011;41709;52.536;5.688;2022-12-18T12:46:11;15.88;;;8.55;;
55784;SDS011;41709;52.536;5.688;2022-12-18T12:48:55;13.70;;;8.50;;
55784;SDS011;41709;52.536;5.688;2022-12-18T12:51:24;15.82;;;8.65;;
55784;SDS011;41709;52.536;5.688;2022-12-18T12:53:55;16.17;;;8.82;;
55784;SDS011;41709;52.536;5.688;2022-12-18T12:56:22;21.45;;;9.43;;
55784;SDS011;41709;52.536;5.688;2022-12-18T13:01:41;16.45;;;8.00;;
55784;SDS011;41709;52.536;5.688;2022-12-18T13:07:15;16.55;;;9.50;;
55784;SDS011;41709;52.536;5.688;2022-12-18T13:10:10;12.77;;;8.27;;
55784;SDS011;41709;52.536;5.688;2022-12-18T13:12:37;16.58;;;8.95;;
55784;SDS011;41709;52.536;5.688;2022-12-18T13:15:43;13.70;;;8.30;;
55784;SDS011;41709;52.536;5.688;2022-12-18T13:21:25;15.75;;;8.35;;
55784;SDS011;41709;52.536;5.688;2022-12-18T13:23:44;15.98;;;8.70;;
55784;SDS011;41709;52.536;5.688;2022-12-18T13:28:53;16.13;;;8.68;;
55784;SDS011;41709;52.536;5.688;2022-12-18T13:34:21;13.93;;;7.95;;
55784;SDS011;41709;52.536;5.688;2022-12-18T13:36:47;14.98;;;8.55;;
55784;SDS011;41709;52.536;5.688;2022-12-18T13:41:39;17.23;;;10.40;;
55784;SDS011;41709;52.536;5.688;2022-12-18T13:46:50;19.77;;;10.90;;
55784;SDS011;41709;52.536;5.688;2022-12-18T13:51:51;17.50;;;9.60;;
55784;SDS011;41709;52.536;5.688;2022-12-18T13:57:04;20.10;;;11.02;;
55784;SDS011;41709;52.536;5.688;2022-12-18T13:59:37;14.75;;;8.45;;
55784;SDS011;41709;52.536;5.688;2022-12-18T14:02:14;13.68;;;8.60;;
55784;SDS011;41709;52.536;5.688;2022-12-18T14:04:44;14.65;;;8.73;;
55784;SDS011;41709;52.536;5.688;2022-12-18T14:07:12;14.75;;;9.05;;
55784;SDS011;41709;52.536;5.688;2022-12-18T14:09:46;15.15;;;8.73;;
55784;SDS011;41709;52.536;5.688;2022-12-18T14:12:16;16.90;;;9.05;;
55784;SDS011;41709;52.536;5.688;2022-12-18T14:15:06;12.70;;;8.63;;
55784;SDS011;41709;52.536;5.688;2022-12-18T14:18:00;16.20;;;8.73;;
55784;SDS011;41709;52.536;5.688;2022-12-18T14:20:28;15.82;;;8.57;;
55784;SDS011;41709;52.536;5.688;2022-12-18T14:22:56;17.00;;;9.45;;
55784;SDS011;41709;52.536;5.688;2022-12-18T14:25:29;17.05;;;9.30;;
55784;SDS011;41709;52.536;5.688;2022-12-18T14:30:40;13.32;;;8.10;;
55784;SDS011;41709;52.536;5.688;2022-12-18T14:35:39;16.65;;;9.50;;
55784;SDS011;41709;52.536;5.688;2022-12-18T14:40:53;13.30;;;8.20;;
55784;SDS011;41709;52.536;5.688;2022-12-18T14:43:24;15.25;;;8.52;;
55784;SDS011;41709;52.536;5.688;2022-12-18T14:45:51;13.93;;;8.52;;
55784;SDS011;41709;52.536;5.688;2022-12-18T14:48:19;16.35;;;9.38;;
55784;SDS011;41709;52.536;5.688;2022-12-18T14:51:16;16.20;;;9.77;;
55784;SDS011;41709;52.536;5.688;2022-12-18T14:53:45;15.07;;;9.23;;
55784;SDS011;41709;52.536;5.688;2022-12-18T14:56:22;15.77;;;8.65;;
55784;SDS011;41709;52.536;5.688;2022-12-18T14:59:00;18.05;;;9.05;;
55784;SDS011;41709;52.536;5.688;2022-12-18T15:01:32;14.05;;;8.95;;
55784;SDS011;41709;52.536;5.688;2022-12-18T15:04:00;18.38;;;8.13;;
55784;SDS011;41709;52.536;5.688;2022-12-18T15:08:58;17.27;;;10.10;;
55784;SDS011;41709;52.536;5.688;2022-12-18T15:11:25;17.35;;;10.15;;
55784;SDS011;41709;52.536;5.688;2022-12-18T15:14:21;19.23;;;9.85;;
55784;SDS011;41709;52.536;5.688;2022-12-18T15:17:14;15.82;;;9.57;;
55784;SDS011;41709;52.536;5.688;2022-12-18T15:19:44;16.67;;;8.93;;
55784;SDS011;41709;52.536;5.688;2022-12-18T15:22:17;14.60;;;8.43;;
55784;SDS011;41709;52.536;5.688;2022-12-18T15:24:50;15.93;;;8.87;;
55784;SDS011;41709;52.536;5.688;2022-12-18T15:27:20;17.42;;;9.15;;
55784;SDS011;41709;52.536;5.688;2022-12-18T15:32:37;19.38;;;9.07;;
55784;SDS011;41709;52.536;5.688;2022-12-18T15:37:35;13.93;;;8.85;;
55784;SDS011;41709;52.536;5.688;2022-12-18T15:40:05;14.35;;;8.43;;
55784;SDS011;41709;52.536;5.688;2022-12-18T15:42:31;14.73;;;8.57;;
55784;SDS011;41709;52.536;5.688;2022-12-18T15:45:15;16.52;;;9.10;;
55784;SDS011;41709;52.536;5.688;2022-12-18T15:47:41;16.48;;;9.07;;
55784;SDS011;41709;52.536;5.688;2022-12-18T15:50:07;15.45;;;9.05;;
55784;SDS011;41709;52.536;5.688;2022-12-18T15:52:39;14.70;;;9.13;;
55784;SDS011;41709;52.536;5.688;2022-12-18T15:55:14;15.85;;;8.70;;
55784;SDS011;41709;52.536;5.688;2022-12-18T15:58:00;14.25;;;8.18;;
55784;SDS011;41709;52.536;5.688;2022-12-18T16:00:26;14.90;;;8.75;;
55784;SDS011;41709;52.536;5.688;2022-12-18T16:02:52;15.15;;;8.73;;
55784;SDS011;41709;52.536;5.688;2022-12-18T16:05:18;16.38;;;8.80;;
55784;SDS011;41709;52.536;5.688;2022-12-18T16:07:45;16.70;;;9.55;;
55784;SDS011;41709;52.536;5.688;2022-12-18T16:10:11;16.63;;;9.68;;
55784;SDS011;41709;52.536;5.688;2022-12-18T16:12:37;18.05;;;8.57;;
55784;SDS011;41709;52.536;5.688;2022-12-18T16:15:03;15.80;;;8.90;;
55784;SDS011;41709;52.536;5.688;2022-12-18T16:17:30;14.68;;;9.75;;
55784;SDS011;41709;52.536;5.688;2022-12-18T16:19:55;19.55;;;10.18;;
55784;SDS011;41709;52.536;5.688;2022-12-18T16:22:22;15.23;;;9.20;;
55784;SDS011;41709;52.536;5.688;2022-12-18T16:24:50;14.10;;;8.82;;
55784;SDS011;41709;52.536;5.688;2022-12-18T16:27:17;18.75;;;9.85;;
55784;SDS011;41709;52.536;5.688;2022-12-18T16:29:43;16.63;;;9.43;;
55784;SDS011;41709;52.536;5.688;2022-12-18T16:32:11;16.20;;;8.68;;
55784;SDS011;41709;52.536;5.688;2022-12-18T16:34:39;13.68;;;8.57;;
55784;SDS011;41709;52.536;5.688;2022-12-18T16:37:07;15.90;;;8.55;;
55784;SDS011;41709;52.536;5.688;2022-12-18T16:39:34;18.45;;;10.43;;